Juneau, AK

10:03 PM AKDT on September 30, 2016 (GMT -0800)
MISC | | Change Station

Elev 16 ft 58.36 °N, 134.51 °W | Updated 41 minutes ago

Clear
Clear
52 °F
Feels Like 52 °F
N
3
Wind Variable Wind from North

Today
High -- | Low -- °F
--% Chance of Precip.
Yesterday
High -- | Low -- °F
Precip. -- in
Pressure 30.25 in
Visibility 10.0 miles
Clouds Clear
Dew Point 36 °F
Humidity 54%
Rainfall in
Snow Depth Not available.
7:01 AM 6:32 PM
New Moon, 0% visible
METAR PAJN 010553Z COR 03004KT 10SM CLR 10/M04 A3024 RMK AO2 SLP241 AURBO T01001039 10139 20067 50005
Pressure 30.25 in
Visibility 10.0 miles
Clouds Clear
Dew Point 36 °F
Humidity 54%
Rainfall in
Snow Depth Not available.
7:01 AM 6:32 PM
New Moon, 0% visible
METAR PAJN 010553Z COR 03004KT 10SM CLR 10/M04 A3024 RMK AO2 SLP241 AURBO T01001039 10139 20067 50005

10-Day Weather Forecast

Almanac

Astronomy

Sep. 30, 2016 Rise Set
Actual Time
Civil Twilight
Nautical Twilight
Astronomical Twilight
Moon
Length of Visible Light
Length of Day
Tomorrow will be .
, % of the Moon is Illuminated

Today's Extremes

State Highs State Lows

Community

WunderPhotos

Upload Photos

1,942,898 photos uploaded!

WunderBlog® & News

Nearby

Air Quality

  Air Quality AQ Index Pollutant
Not available.

Snow Depth

Station Depth Elevation

Earthquake Activity

City Distance Mag. Time & Date
Minimum magnitude displayed is 2.5.

Coastal Water Temperatures

Place Temperature

Stations

Nearby Weather Stations

Station Location Temp. Windchill Dew Point Humidity Wind Precip. Elev Updated Type
                   

Watches & Warnings

There are currently no watches in effect.